Pampa, Texas
Current Conditions -  °F | °C
As of 12:15 AM on Monday 26 Jan 2015 (Local Time) from KPPA Reporting Station
Clear Clear  
Wind Chill: 28°   Ceiling: Unl
Heat Index: 36°   Visibility: 10mi
Dew Point: 32°   Wind: 10mph
Humidity: 86%   Direction: 270°W
Pressure: 30.22"   Gusts: NA
Location:  35.53°N, 100.95°W
Report Text: KPPA 260615Z AUTO 27009KT 10SM CLR 02/00 A3022 RMK AO2 T00211001
Loading
Personal Weather Stations






























Interactive Weather Map New forecast layout! Learn more

10-Day Weather Forecast

Advertisements
Track Severe Weather on mobile